createdAt,value
2018-10-07T00:01:03.506Z,95.30
2018-10-07T00:03:31.682Z,95.30
2018-10-07T00:06:00.602Z,95.40
2018-10-07T00:08:28.804Z,95.50
2018-10-07T00:10:56.969Z,95.60
2018-10-07T00:13:25.176Z,95.80
2018-10-07T00:15:53.408Z,95.80
2018-10-07T00:18:22.048Z,95.90
2018-10-07T00:20:50.236Z,96.30
2018-10-07T00:23:18.411Z,96.10
2018-10-07T00:25:46.573Z,96.20
2018-10-07T00:28:14.765Z,96.30
2018-10-07T00:30:42.903Z,96.40
2018-10-07T00:33:11.105Z,96.50
2018-10-07T00:35:39.280Z,96.50
2018-10-07T00:38:07.441Z,96.70
2018-10-07T00:40:35.767Z,96.90
2018-10-07T00:43:03.918Z,97.00
2018-10-07T00:45:32.184Z,97.10
2018-10-07T00:48:00.387Z,97.20
2018-10-07T00:50:28.707Z,97.30
2018-10-07T00:52:56.956Z,97.30
2018-10-07T00:55:25.120Z,97.40
2018-10-07T00:57:53.415Z,97.50
2018-10-07T01:00:21.649Z,97.60
2018-10-07T01:02:49.862Z,97.70
2018-10-07T01:05:18.021Z,98.00
2018-10-07T01:07:46.272Z,97.70
2018-10-07T01:10:14.496Z,98.00
2018-10-07T01:12:42.706Z,98.00
2018-10-07T01:15:10.980Z,98.00
2018-10-07T01:17:39.219Z,98.20
2018-10-07T01:20:07.451Z,97.90
2018-10-07T01:22:35.753Z,97.90
2018-10-07T01:25:03.949Z,97.90
2018-10-07T01:27:32.131Z,98.00
2018-10-07T01:30:00.467Z,98.30
2018-10-07T01:32:28.713Z,98.20
2018-10-07T01:34:56.876Z,98.10
2018-10-07T01:37:25.076Z,98.20
2018-10-07T01:39:53.375Z,98.10
2018-10-07T01:42:21.643Z,98.20
2018-10-07T01:44:49.856Z,98.30
2018-10-07T01:47:18.064Z,98.40
2018-10-07T01:49:46.331Z,98.40
2018-10-07T01:52:14.489Z,98.50
2018-10-07T01:54:42.687Z,98.50
2018-10-07T01:57:10.941Z,98.50
2018-10-07T01:59:39.091Z,98.60
2018-10-07T02:02:07.279Z,98.70
2018-10-07T02:04:35.456Z,98.70
2018-10-07T02:07:03.641Z,98.70
2018-10-07T02:09:32.385Z,98.90
2018-10-07T02:12:00.537Z,99.00
2018-10-07T02:14:28.763Z,99.00
2018-10-07T02:16:56.895Z,99.00
2018-10-07T02:19:25.137Z,99.10
2018-10-07T02:21:53.284Z,99.20
2018-10-07T02:24:21.433Z,99.20
2018-10-07T02:26:49.593Z,99.40
2018-10-07T02:29:17.730Z,99.40
2018-10-07T02:31:46.943Z,99.40
2018-10-07T02:36:50.493Z,99.50
2018-10-07T02:39:18.653Z,99.50
2018-10-07T02:41:46.849Z,99.50
2018-10-07T02:44:14.954Z,99.50
2018-10-07T02:46:43.124Z,99.50
2018-10-07T02:49:11.273Z,99.50
2018-10-07T02:51:39.437Z,99.40
2018-10-07T02:54:07.651Z,99.40
2018-10-07T02:56:35.823Z,99.50
2018-10-07T02:59:04.412Z,99.30
2018-10-07T03:01:32.601Z,99.50
2018-10-07T03:04:03.302Z,99.40
2018-10-07T03:06:31.517Z,99.40
2018-10-07T03:08:59.667Z,99.40
2018-10-07T03:11:27.915Z,99.50
2018-10-07T03:13:56.089Z,99.50
2018-10-07T03:16:24.248Z,99.50
2018-10-07T03:18:52.408Z,99.60
2018-10-07T03:21:20.560Z,99.60
2018-10-07T03:23:48.760Z,99.70
2018-10-07T03:26:16.950Z,99.80
2018-10-07T03:28:45.150Z,99.90
2018-10-07T03:31:14.453Z,99.90
2018-10-07T03:33:42.611Z,99.90
2018-10-07T03:36:10.829Z,99.90
2018-10-07T03:38:39.059Z,99.90
2018-10-07T03:41:07.457Z,99.90
2018-10-07T03:43:35.647Z,99.90
2018-10-07T03:46:03.821Z,99.90
2018-10-07T03:48:31.990Z,99.90
2018-10-07T03:51:00.174Z,99.90
2018-10-07T03:53:28.337Z,99.90
2018-10-07T03:55:57.409Z,99.90
2018-10-07T03:58:25.597Z,99.90
2018-10-07T04:00:53.815Z,99.90
2018-10-07T04:03:22.167Z,99.80
2018-10-07T04:05:50.321Z,99.80
2018-10-07T04:08:18.495Z,99.70
2018-10-07T04:10:46.815Z,99.60
2018-10-07T04:13:15.000Z,99.50
2018-10-07T04:15:43.219Z,99.30
2018-10-07T04:18:11.354Z,99.20
2018-10-07T04:20:39.517Z,99.20
2018-10-07T04:23:07.685Z,99.20
2018-10-07T04:25:35.817Z,99.30
2018-10-07T04:28:03.969Z,99.20
2018-10-07T04:30:32.123Z,99.10
2018-10-07T04:33:00.321Z,99.10
2018-10-07T04:35:28.463Z,99.10
2018-10-07T04:37:56.625Z,99.00
2018-10-07T04:40:24.813Z,99.10
2018-10-07T04:42:53.034Z,99.00
2018-10-07T04:45:21.187Z,99.10
2018-10-07T04:47:49.367Z,99.00
2018-10-07T04:50:17.527Z,99.00
2018-10-07T04:52:45.648Z,98.90
2018-10-07T04:55:13.805Z,98.90
2018-10-07T04:57:42.111Z,98.90
2018-10-07T05:00:10.349Z,98.90
2018-10-07T05:02:38.474Z,98.90
2018-10-07T05:05:06.951Z,98.80
2018-10-07T05:07:35.129Z,98.60
2018-10-07T05:10:14.998Z,98.60
2018-10-07T05:12:43.226Z,98.40
2018-10-07T05:15:11.367Z,98.40
2018-10-07T05:17:39.520Z,98.40
2018-10-07T05:20:07.646Z,98.40
2018-10-07T05:22:35.802Z,98.40
2018-10-07T05:25:03.966Z,98.50
2018-10-07T05:27:32.141Z,98.50
2018-10-07T05:30:00.286Z,98.50
2018-10-07T05:32:28.501Z,98.60
2018-10-07T05:34:56.653Z,98.60
2018-10-07T05:37:24.800Z,98.70
2018-10-07T05:39:52.980Z,98.70
2018-10-07T05:42:21.171Z,98.70
2018-10-07T05:44:50.637Z,98.80
2018-10-07T05:47:18.773Z,98.80
2018-10-07T05:49:46.985Z,98.80
2018-10-07T05:52:15.169Z,98.80
2018-10-07T05:54:43.382Z,98.70
2018-10-07T05:57:11.597Z,98.60
2018-10-07T05:59:39.811Z,98.50
2018-10-07T06:02:08.848Z,98.40
2018-10-07T06:05:10.157Z,98.30
2018-10-07T06:07:38.337Z,98.20
2018-10-07T06:10:06.809Z,98.40
2018-10-07T06:12:35.155Z,98.00
2018-10-07T06:15:27.910Z,98.00
2018-10-07T06:17:56.257Z,98.00
2018-10-07T06:20:24.430Z,98.10
2018-10-07T06:22:52.603Z,98.10
2018-10-07T06:25:20.873Z,98.10
2018-10-07T06:27:49.138Z,98.10
2018-10-07T06:30:17.351Z,98.30
2018-10-07T06:32:45.490Z,98.10
2018-10-07T06:35:13.742Z,98.00
2018-10-07T06:37:42.044Z,98.10
2018-10-07T06:40:10.460Z,98.20
2018-10-07T06:42:38.634Z,98.30
2018-10-07T06:45:06.802Z,98.40
2018-10-07T06:47:34.988Z,98.50
2018-10-07T06:50:03.381Z,98.50
2018-10-07T06:52:31.556Z,98.60
2018-10-07T06:55:00.593Z,98.60
2018-10-07T06:57:30.027Z,98.60
2018-10-07T06:59:58.358Z,98.60
2018-10-07T07:02:26.573Z,98.60
2018-10-07T07:04:55.130Z,98.60
2018-10-07T07:07:23.526Z,98.50
2018-10-07T07:09:52.428Z,98.50
2018-10-07T07:12:20.575Z,98.50
2018-10-07T07:14:48.830Z,98.30
2018-10-07T07:17:17.030Z,97.90
2018-10-07T07:19:45.266Z,97.50
2018-10-07T07:22:13.446Z,97.50
2018-10-07T07:24:41.694Z,97.50
2018-10-07T07:27:09.887Z,97.60
2018-10-07T07:29:38.044Z,97.30
2018-10-07T07:32:06.362Z,97.20
2018-10-07T07:34:35.360Z,97.10
2018-10-07T07:37:03.563Z,97.00
2018-10-07T07:39:31.861Z,97.20
2018-10-07T07:42:01.564Z,97.20
2018-10-07T07:44:29.888Z,97.40
2018-10-07T07:46:58.015Z,97.40
2018-10-07T07:49:26.340Z,97.80
2018-10-07T07:51:55.762Z,97.90
2018-10-07T07:54:24.106Z,98.20
2018-10-07T07:56:52.386Z,98.20
2018-10-07T07:59:20.513Z,98.10
2018-10-07T08:01:48.865Z,98.10
2018-10-07T08:04:17.286Z,97.70
2018-10-07T08:06:45.607Z,97.10
2018-10-07T08:09:13.760Z,96.80
2018-10-07T08:11:41.904Z,96.50
2018-10-07T08:14:10.927Z,96.10
2018-10-07T08:16:39.466Z,95.80
2018-10-07T08:19:07.659Z,95.40
2018-10-07T08:21:35.808Z,95.40
2018-10-07T08:24:03.985Z,95.10
2018-10-07T08:26:32.176Z,95.10
2018-10-07T08:29:00.310Z,95.00
2018-10-07T08:31:28.629Z,95.00
2018-10-07T08:33:56.756Z,94.90
2018-10-07T08:36:24.964Z,95.10
2018-10-07T08:38:53.110Z,95.30
2018-10-07T08:41:22.038Z,95.30
2018-10-07T08:43:50.202Z,95.10
2018-10-07T08:46:18.448Z,94.70
2018-10-07T08:48:46.659Z,94.50
2018-10-07T08:51:15.804Z,94.10
2018-10-07T08:53:44.120Z,93.90
2018-10-07T08:56:12.468Z,93.40
2018-10-07T08:58:40.590Z,93.30
2018-10-07T09:01:08.958Z,93.30
2018-10-07T09:03:37.338Z,92.90
2018-10-07T09:06:05.931Z,92.80
2018-10-07T09:08:34.628Z,92.50
2018-10-07T09:11:03.617Z,92.50
2018-10-07T09:13:33.744Z,92.20
2018-10-07T09:16:02.680Z,92.10
2018-10-07T09:18:31.877Z,92.00
2018-10-07T09:21:00.278Z,91.80
2018-10-07T09:23:28.366Z,91.40
2018-10-07T09:25:56.596Z,91.50
2018-10-07T09:28:25.094Z,91.70
2018-10-07T09:30:53.676Z,91.80
2018-10-07T09:33:22.196Z,91.60
2018-10-07T09:35:50.509Z,91.70
2018-10-07T09:38:18.970Z,91.80
2018-10-07T09:40:47.276Z,91.80
2018-10-07T09:43:15.948Z,91.90
2018-10-07T09:45:44.208Z,91.90
2018-10-07T09:48:12.452Z,91.60
2018-10-07T09:53:17.780Z,90.80
2018-10-07T09:55:46.175Z,90.80
2018-10-07T09:58:14.486Z,90.90
2018-10-07T10:00:42.678Z,90.80
2018-10-07T10:03:12.115Z,90.90
2018-10-07T10:05:40.410Z,91.10
2018-10-07T10:08:09.130Z,91.00
2018-10-07T10:10:37.416Z,90.90
2018-10-07T10:13:05.877Z,90.70
2018-10-07T10:15:34.224Z,90.30
2018-10-07T10:18:06.258Z,90.10
2018-10-07T10:20:40.854Z,89.80
2018-10-07T10:23:12.890Z,89.30
2018-10-07T10:26:25.504Z,89.00
2018-10-07T10:29:14.282Z,89.50
2018-10-07T10:31:51.449Z,90.00
2018-10-07T10:36:36.436Z,90.00
2018-10-07T10:39:58.674Z,90.00
2018-10-07T10:44:39.407Z,90.30
2018-10-07T10:47:13.087Z,89.40
2018-10-07T10:49:57.442Z,88.90
2018-10-07T10:52:44.945Z,88.90
2018-10-07T10:55:30.342Z,88.70
2018-10-07T10:58:01.344Z,89.00
2018-10-07T11:00:33.111Z,89.60
2018-10-07T11:03:13.058Z,89.70
2018-10-07T11:05:49.558Z,90.00
2018-10-07T11:08:27.587Z,89.60
2018-10-07T11:12:07.026Z,90.10
2018-10-07T11:15:14.829Z,88.90
2018-10-07T11:18:01.708Z,88.70
2018-10-07T11:21:41.037Z,87.80
2018-10-07T11:24:17.250Z,87.10
2018-10-07T11:27:52.996Z,86.60
2018-10-07T11:31:38.232Z,86.10
2018-10-07T11:34:21.677Z,86.00
2018-10-07T11:36:55.683Z,85.50
2018-10-07T11:39:35.278Z,85.30
2018-10-07T11:42:07.458Z,85.30
2018-10-07T11:45:16.927Z,84.90
2018-10-07T11:47:51.649Z,84.20
2018-10-07T11:50:27.541Z,81.90
2018-10-07T11:53:02.612Z,80.50
2018-10-07T11:55:30.838Z,80.10
2018-10-07T11:57:58.999Z,80.00
2018-10-07T12:00:27.304Z,80.80
2018-10-07T12:02:55.461Z,81.00
2018-10-07T12:05:23.773Z,81.50
2018-10-07T12:07:52.009Z,81.20
2018-10-07T12:10:20.288Z,81.30
2018-10-07T12:12:48.447Z,81.30
2018-10-07T12:15:16.609Z,82.10
2018-10-07T12:17:44.813Z,81.10
2018-10-07T12:20:12.986Z,80.70
2018-10-07T12:22:41.361Z,80.60
2018-10-07T12:25:10.282Z,80.50
2018-10-07T12:27:38.451Z,80.70
2018-10-07T12:30:06.671Z,81.20
2018-10-07T12:32:34.906Z,81.40
2018-10-07T12:35:03.104Z,81.30
2018-10-07T12:37:31.233Z,81.30
2018-10-07T12:39:59.460Z,80.60
2018-10-07T12:42:27.664Z,80.30
2018-10-07T12:44:55.971Z,79.80
2018-10-07T12:47:24.188Z,79.80
2018-10-07T12:49:52.397Z,79.20
2018-10-07T12:52:20.557Z,78.80
2018-10-07T12:54:48.709Z,78.80
2018-10-07T12:57:16.950Z,77.50
2018-10-07T12:59:45.090Z,77.80
2018-10-07T13:02:13.264Z,77.50
2018-10-07T13:04:41.635Z,77.30
2018-10-07T13:07:09.831Z,76.90
2018-10-07T13:09:38.064Z,76.40
2018-10-07T13:12:06.279Z,76.90
2018-10-07T13:14:34.462Z,77.50
2018-10-07T13:17:02.665Z,77.50
2018-10-07T13:19:30.893Z,77.10
2018-10-07T13:21:59.185Z,76.60
2018-10-07T13:24:27.433Z,75.90
2018-10-07T13:26:55.613Z,75.20
2018-10-07T13:29:23.994Z,74.20
2018-10-07T13:31:52.167Z,74.50
2018-10-07T13:34:20.423Z,74.90
2018-10-07T13:36:48.553Z,75.00
2018-10-07T13:39:16.742Z,75.40
2018-10-07T13:41:45.171Z,74.80
2018-10-07T13:44:13.396Z,74.70
2018-10-07T13:46:41.615Z,74.40
2018-10-07T13:49:09.806Z,74.50
2018-10-07T13:51:38.243Z,73.90
2018-10-07T13:54:06.654Z,73.80
2018-10-07T13:56:34.946Z,72.60
2018-10-07T13:59:03.320Z,71.80
2018-10-07T14:01:31.629Z,72.30
2018-10-07T14:04:00.009Z,72.70
2018-10-07T14:06:28.163Z,72.20
2018-10-07T14:08:56.331Z,72.50
2018-10-07T14:11:24.534Z,72.20
2018-10-07T14:13:52.742Z,72.20
2018-10-07T14:16:20.885Z,72.40
2018-10-07T14:18:49.258Z,72.40
2018-10-07T14:21:17.432Z,71.80
2018-10-07T14:23:45.606Z,71.90
2018-10-07T14:26:13.884Z,72.10
2018-10-07T14:28:42.089Z,72.60
2018-10-07T14:31:10.230Z,73.00
2018-10-07T14:33:38.438Z,73.50
2018-10-07T14:36:06.733Z,73.90
2018-10-07T14:38:34.895Z,74.20
2018-10-07T14:41:03.128Z,74.20
2018-10-07T14:43:31.643Z,74.20
2018-10-07T14:45:59.822Z,74.30
2018-10-07T14:48:28.103Z,74.80
2018-10-07T14:50:56.271Z,74.90
2018-10-07T14:53:24.465Z,75.00
2018-10-07T14:55:52.748Z,74.90
2018-10-07T14:58:21.064Z,74.90
2018-10-07T15:00:49.315Z,75.40
2018-10-07T15:03:17.551Z,75.40
2018-10-07T15:05:45.764Z,75.70
2018-10-07T15:08:13.964Z,75.80
2018-10-07T15:10:42.112Z,76.00
2018-10-07T15:13:11.686Z,76.20
2018-10-07T15:15:39.856Z,76.00
2018-10-07T15:18:08.102Z,76.20
2018-10-07T15:20:36.284Z,76.20
2018-10-07T15:23:04.516Z,76.60
2018-10-07T15:25:32.696Z,76.90
2018-10-07T15:28:00.994Z,76.90
2018-10-07T15:30:29.281Z,77.30
2018-10-07T15:32:57.500Z,77.00
2018-10-07T15:35:25.944Z,76.80
2018-10-07T15:37:54.258Z,76.90
2018-10-07T15:40:22.512Z,76.90
2018-10-07T15:42:50.716Z,76.60
2018-10-07T15:45:20.386Z,76.80
2018-10-07T15:47:48.612Z,77.00
2018-10-07T15:50:16.802Z,77.10
2018-10-07T15:52:45.011Z,77.00
2018-10-07T15:55:13.406Z,76.90
2018-10-07T15:57:41.622Z,77.00
2018-10-07T16:00:09.790Z,77.30
2018-10-07T16:02:37.992Z,77.60
2018-10-07T16:05:06.210Z,78.10
2018-10-07T16:07:34.455Z,78.30
2018-10-07T16:10:02.739Z,78.70
2018-10-07T16:12:31.009Z,79.50
2018-10-07T16:14:59.196Z,79.50
2018-10-07T16:17:27.396Z,80.30
2018-10-07T16:19:55.659Z,80.80
2018-10-07T16:22:23.911Z,81.20
2018-10-07T16:24:52.123Z,81.60
2018-10-07T16:27:20.299Z,82.10
2018-10-07T16:29:48.452Z,82.60
2018-10-07T16:32:16.732Z,82.90
2018-10-07T16:34:46.292Z,83.30
2018-10-07T16:37:14.511Z,83.90
2018-10-07T16:39:42.692Z,84.10
2018-10-07T16:42:11.078Z,84.50
2018-10-07T16:44:39.250Z,85.30
2018-10-07T16:47:07.470Z,85.80
2018-10-07T16:49:35.886Z,86.10
2018-10-07T16:52:04.119Z,86.60
2018-10-07T16:54:32.327Z,86.70
2018-10-07T16:57:00.478Z,86.60
2018-10-07T16:59:28.736Z,87.00
2018-10-07T17:01:56.974Z,87.10
2018-10-07T17:04:25.183Z,87.00
2018-10-07T17:06:53.392Z,86.60
2018-10-07T17:09:21.632Z,86.50
2018-10-07T17:11:49.852Z,86.30
2018-10-07T17:14:18.180Z,85.50
2018-10-07T17:16:46.342Z,85.70
2018-10-07T17:19:14.526Z,85.90
2018-10-07T17:21:42.898Z,86.00
2018-10-07T17:24:11.075Z,86.10
2018-10-07T17:26:39.257Z,86.70
2018-10-07T17:29:07.532Z,85.90
2018-10-07T17:31:36.484Z,86.20
2018-10-07T17:34:04.870Z,85.90
2018-10-07T17:36:33.141Z,85.90
2018-10-07T17:39:01.319Z,86.10
2018-10-07T17:41:29.948Z,86.20
2018-10-07T17:43:58.316Z,86.10
2018-10-07T17:46:26.982Z,86.30
2018-10-07T17:48:55.373Z,86.20
2018-10-07T17:51:23.784Z,86.30
2018-10-07T17:53:53.063Z,86.40
2018-10-07T17:56:22.104Z,86.50
2018-10-07T17:58:50.276Z,86.40
2018-10-07T18:01:18.598Z,86.30
2018-10-07T18:03:46.780Z,87.20
2018-10-07T18:06:15.044Z,87.50
2018-10-07T18:08:43.283Z,87.60
2018-10-07T18:11:11.653Z,87.40
2018-10-07T18:13:40.166Z,87.40
2018-10-07T18:16:10.008Z,87.80
2018-10-07T18:18:38.380Z,87.90
2018-10-07T18:21:06.641Z,87.70
2018-10-07T18:23:34.854Z,87.80
2018-10-07T18:26:03.213Z,87.70
2018-10-07T18:28:31.819Z,87.80
2018-10-07T18:31:00.192Z,87.80
2018-10-07T18:33:28.441Z,87.90
2018-10-07T18:35:57.351Z,88.40
2018-10-07T18:38:25.704Z,88.00
2018-10-07T18:40:54.187Z,88.30
2018-10-07T18:43:29.518Z,88.30
2018-10-07T18:45:57.890Z,88.30
2018-10-07T18:48:26.326Z,88.20
2018-10-07T18:50:54.706Z,88.10
2018-10-07T18:53:23.066Z,88.50
2018-10-07T18:55:51.394Z,88.80
2018-10-07T18:58:19.806Z,88.80
2018-10-07T19:00:48.126Z,89.00
2018-10-07T19:03:16.408Z,89.00
2018-10-07T19:05:44.678Z,89.30
2018-10-07T19:08:13.047Z,89.40
2018-10-07T19:10:41.466Z,89.70
2018-10-07T19:13:09.775Z,89.70
2018-10-07T19:15:38.078Z,90.00
2018-10-07T19:18:06.754Z,90.10
2018-10-07T19:20:36.490Z,90.70
2018-10-07T19:23:04.721Z,90.80
2018-10-07T19:25:33.164Z,90.80
2018-10-07T19:28:02.139Z,90.90
2018-10-07T19:30:30.394Z,90.90
2018-10-07T19:32:58.744Z,91.00
2018-10-07T19:35:27.639Z,91.10
2018-10-07T19:37:55.899Z,91.20
2018-10-07T19:40:24.164Z,91.30
2018-10-07T19:42:52.404Z,91.40
2018-10-07T19:45:20.917Z,91.40
2018-10-07T19:47:49.105Z,91.20
2018-10-07T19:50:17.344Z,91.50
2018-10-07T19:52:46.451Z,91.60
2018-10-07T19:55:14.606Z,91.70
2018-10-07T19:57:42.815Z,91.80
2018-10-07T20:00:11.042Z,92.00
2018-10-07T20:02:39.254Z,92.40
2018-10-07T20:05:07.574Z,92.20
2018-10-07T20:07:35.821Z,92.20
2018-10-07T20:10:04.922Z,92.30
2018-10-07T20:12:33.180Z,92.50
2018-10-07T20:15:01.421Z,92.40
2018-10-07T20:17:29.727Z,92.40
2018-10-07T20:19:59.311Z,92.50
2018-10-07T20:22:27.555Z,92.60
2018-10-07T20:24:55.773Z,92.70
2018-10-07T20:27:24.037Z,92.60
2018-10-07T20:29:52.259Z,92.70
2018-10-07T20:32:20.955Z,92.70
2018-10-07T20:34:49.173Z,92.90
2018-10-07T20:37:17.463Z,92.90
2018-10-07T20:39:45.732Z,93.00
2018-10-07T20:42:14.051Z,93.10
2018-10-07T20:44:42.949Z,93.50
2018-10-07T20:47:11.205Z,93.00
2018-10-07T20:49:39.541Z,93.00
2018-10-07T20:52:07.861Z,93.10
2018-10-07T20:54:36.133Z,93.30
2018-10-07T20:57:04.989Z,93.40
2018-10-07T20:59:33.903Z,93.40
2018-10-07T21:02:02.139Z,93.40
2018-10-07T21:04:30.494Z,93.40
2018-10-07T21:06:58.771Z,93.40
2018-10-07T21:09:27.009Z,93.60
2018-10-07T21:11:55.214Z,93.70
2018-10-07T21:14:23.432Z,93.70
2018-10-07T21:16:51.655Z,93.80
2018-10-07T21:19:19.959Z,93.90
2018-10-07T21:21:48.220Z,94.00
2018-10-07T21:24:16.736Z,94.00
2018-10-07T21:26:44.996Z,94.00
2018-10-07T21:29:13.237Z,94.10
2018-10-07T21:31:41.566Z,94.20
2018-10-07T21:34:09.750Z,94.20
2018-10-07T21:36:38.071Z,94.30
2018-10-07T21:39:07.632Z,94.60
2018-10-07T21:41:36.036Z,94.40
2018-10-07T21:44:04.237Z,94.50
2018-10-07T21:46:32.496Z,94.60
2018-10-07T21:49:00.739Z,94.70
2018-10-07T21:51:28.968Z,94.80
2018-10-07T21:53:57.214Z,94.90
2018-10-07T21:56:26.697Z,95.00
2018-10-07T21:58:54.993Z,95.10
2018-10-07T22:01:23.220Z,95.20
2018-10-07T22:03:51.429Z,95.30
2018-10-07T22:06:19.640Z,95.40
2018-10-07T22:08:47.874Z,95.40
2018-10-07T22:11:16.932Z,95.50
2018-10-07T22:13:45.071Z,95.60
2018-10-07T22:16:13.230Z,95.60
2018-10-07T22:18:41.445Z,95.80
2018-10-07T22:21:09.827Z,95.90
2018-10-07T22:23:38.057Z,95.90
2018-10-07T22:26:06.441Z,96.10
2018-10-07T22:28:34.646Z,96.20
2018-10-07T22:31:03.437Z,96.30
2018-10-07T22:33:32.467Z,96.40
2018-10-07T22:36:01.898Z,96.40
2018-10-07T22:38:30.119Z,96.40
2018-10-07T22:40:58.327Z,96.50
2018-10-07T22:43:26.492Z,96.60
2018-10-07T22:45:54.677Z,96.70
2018-10-07T22:48:22.913Z,96.80
2018-10-07T22:50:51.121Z,96.80
2018-10-07T22:53:19.356Z,96.90
2018-10-07T22:55:47.526Z,97.00
2018-10-07T22:58:15.686Z,97.00
2018-10-07T23:00:43.955Z,97.00
2018-10-07T23:03:12.320Z,97.10
2018-10-07T23:05:40.609Z,97.20
2018-10-07T23:08:08.856Z,97.30
2018-10-07T23:10:37.058Z,97.30
2018-10-07T23:13:05.331Z,97.30
2018-10-07T23:15:33.634Z,97.30
2018-10-07T23:18:01.839Z,97.40
2018-10-07T23:20:30.064Z,97.40
2018-10-07T23:22:58.291Z,97.50
2018-10-07T23:25:26.497Z,97.50
2018-10-07T23:27:54.670Z,97.50
2018-10-07T23:30:22.895Z,97.60
2018-10-07T23:32:52.043Z,97.70
2018-10-07T23:35:20.226Z,97.80
2018-10-07T23:37:48.430Z,98.10
2018-10-07T23:40:16.753Z,97.90
2018-10-07T23:42:45.321Z,97.90
2018-10-07T23:45:13.610Z,98.00
2018-10-07T23:47:43.136Z,98.00
2018-10-07T23:50:11.305Z,98.10
2018-10-07T23:52:39.521Z,98.10
2018-10-07T23:55:07.715Z,98.10
2018-10-07T23:57:35.891Z,98.30
